東京国際空港の過去48時間の天気

東京国際空港 (Tokyo/Intl)

現在時刻: 4/22 22:01 JST (4/22 13:01 UTC) 以下の時間は現地時間です。

過去48時間のMETAR気象情報
時間 風向 風速(m/s) 視程 気温(℃) 湿度(%) 気圧(hPa) 天気現象
22 21:30 東北東 6 10km以上 18 68 1017
22 21:00 北東 7 10km以上 18 73 1018
22 20:30 東北東 7 10km以上 18 77 1017
22 20:00 7 10km以上 18 83 1016
22 19:30 6 10km以上 18 83 1015
22 19:00 5 10km以上 18 83 1015
22 18:30 6 10km以上 18 83 1014
22 18:00 6 10km以上 19 78 1014
22 17:30 6 10km以上 19 83 1013
22 17:00 6 10km以上 19 83 1013
22 16:30 7 10km以上 20 73 1012
22 16:00 7 10km以上 20 78 1012
22 15:30 7 10km以上 21 78 1012
22 15:00 3 10km以上 22 73 1012
22 14:30 不定 1 10km以上 23 57 1012
22 14:00 2 10km以上 22 65 1012
22 13:30 2 10km以上 22 65 1012
22 13:00 2 10km以上 21 73 1012
22 12:30 2 10km以上 21 73 1012
22 12:00 3 10km以上 21 78 1012
22 11:30 3 10km以上 20 78 1012
22 11:00 3 10km以上 20 78 1013
22 10:30 3 10km以上 20 78 1013
22 10:00 東南東 3 10km以上 20 73 1013
22 09:30 東北東 2 10km以上 19 78 1013
22 09:00 北東 3 10km以上 19 78 1013
22 08:30 北東 3 10km以上 19 78 1013
22 08:00 北東 3 10km以上 18 77 1013
22 07:30 北北東 3 10km以上 17 88 1013
22 07:00 東北東 2 10km以上 17 83 1013
22 06:30 東北東 3 10km以上 16 88 1012
22 06:00 北北東 2 10km以上 16 88 1012
22 05:30 北北東 3 10km以上 16 88 1012
22 05:00 北北東 3 9000m 16 88 1012
22 04:30 北北東 3 10km以上 16 88 1012
22 04:00 北北東 3 10km以上 16 88 1011
22 03:30 北北東 3 10km以上 17 83 1011
22 03:00 北東 3 10km以上 17 88 1011
22 02:30 北東 2 10km以上 17 88 1011
22 02:00 不定 1 9000m 17 88 1011
22 01:30 2 9000m 17 88 1011
22 01:00 3 10km以上 17 88 1012
22 00:30 4 10km以上 17 88 1012
22 00:00 3 10km以上 17 88 1012
21 23:30 4 10km以上 17 88 1012
21 23:00 4 10km以上 17 88 1012
21 22:30 東南東 3 10km以上 17 88 1012
21 22:00 3 10km以上 18 83 1012
21 21:30 南南東 2 10km以上 17 88 1012
21 21:00 3 10km以上 18 83 1012
21 20:30 南南東 4 10km以上 18 83 1012
21 20:00 5 10km以上 19 78 1012
21 19:30 6 10km以上 19 78 1011
21 19:00 南東 4 10km以上 18 83 1011
21 18:30 4 10km以上 18 83 1011
21 18:00 5 10km以上 19 78 1011
21 17:30 6 10km以上 19 73 1011
21 17:00 6 10km以上 19 73 1011
21 16:30 6 10km以上 20 68 1011
21 16:00 6 10km以上 20 68 1011
21 15:30 7 10km以上 20 68 1010
21 15:00 7 10km以上 21 64 1010
21 14:30 7 10km以上 22 57 1010
21 14:00 7 10km以上 21 60 1011
21 13:30 6 10km以上 21 60 1011
21 13:00 南南東 6 10km以上 20 60 1011
21 12:30 南南東 5 10km以上 21 56 1012
21 12:00 3 10km以上 19 68 1012
21 11:30 3 10km以上 19 73 1012
21 11:00 東北東 3 10km以上 19 68 1013
21 10:30 3 10km以上 18 73 1013
21 10:00 東北東 2 10km以上 18 73 1014
21 09:30 北東 3 10km以上 17 72 1014
21 09:00 北東 3 10km以上 17 72 1014
21 08:30 北北東 2 10km以上 16 77 1014
21 08:00 3 10km以上 16 72 1014
21 07:30 4 10km以上 15 77 1014
21 07:00 4 10km以上 15 77 1014
21 06:30 北北東 4 10km以上 14 77 1014
21 06:00 北東 3 10km以上 14 82 1014
21 05:30 北北東 4 10km以上 14 82 1014
21 05:00 5 10km以上 14 82 1014
21 04:30 5 10km以上 15 77 1013
RJTT 221230Z 07011KT 9999 BKN035 BKN050 18/12 Q1017 BECMG 04014KT
RJTT 221200Z 05014KT 9999 BKN035 18/13 Q1018 NOSIG RMK 7CU035 A3006
RJTT 221130Z 06014KT 9999 FEW025 BKN035 18/14 Q1017 BECMG 04014KT
RJTT 221100Z 08014KT 9999 BKN030 18/15 Q1016 NOSIG RMK 7CU030 A3001
RJTT 221030Z 09012KT 9999 SCT030 BKN100 BKN120 18/15 Q1015 NOSIG RMK 3CU030 6AC100 7AC120 A2999
RJTT 221000Z 09010KT 9999 SCT025 BKN040 18/15 Q1015 NOSIG RMK 3CU025 7SC040 A2998
RJTT 220930Z 09011KT CAVOK 18/15 Q1014 NOSIG RMK A2997
RJTT 220900Z 10011KT CAVOK 19/15 Q1014 NOSIG RMK A2995
RJTT 220830Z 10011KT CAVOK 19/16 Q1013 NOSIG RMK A2994
RJTT 220800Z 10012KT CAVOK 19/16 Q1013 NOSIG RMK A2992
RJTT 220730Z 10013KT CAVOK 20/15 Q1012 NOSIG RMK A2991
RJTT 220700Z 10013KT 9999 FEW030 BKN100 20/16 Q1012 NOSIG RMK 1CU030 6AC100 A2990
RJTT 220630Z 10013KT 9999 FEW030 BKN110 21/17 Q1012 NOSIG RMK 1CU030 5AC110 A2990
RJTT 220600Z 10006KT 9999 FEW030 22/17 Q1012 NOSIG RMK 1CU030 A2988
RJTT 220530Z VRB02KT 9999 FEW030 23/14 Q1012 BECMG 12010KT
RJTT 220500Z 08003KT 050V120 9999 FEW030 22/15 Q1012 NOSIG RMK 1CU030 A2989
RJTT 220430Z 10004KT 9999 FEW030 SCT/// 22/15 Q1012 NOSIG
RJTT 220400Z 09004KT 9999 FEW030 BKN/// 21/16 Q1012 NOSIG RMK 1CU030 A2990
RJTT 220330Z 09004KT 9999 FEW030 BKN/// 21/16 Q1012 NOSIG
RJTT 220300Z 09006KT 9999 FEW030 BKN/// 21/17 Q1012 NOSIG RMK 1CU030 A2990
RJTT 220230Z 09005KT 9999 FEW030 BKN/// 20/16 Q1012 NOSIG RMK 1CU030 A2990
RJTT 220200Z 09006KT 9999 FEW020 BKN/// 20/16 Q1013 NOSIG RMK 1CU020 A2992
RJTT 220130Z 10005KT 9999 FEW020 BKN/// 20/16 Q1013 NOSIG RMK 1CU020 A2992
RJTT 220100Z 11005KT 9999 FEW020 BKN/// 20/15 Q1013 NOSIG RMK 1CU020 A2992
RJTT 220030Z 07004KT 9999 FEW020 BKN/// 19/15 Q1013 NOSIG
RJTT 220000Z 05005KT 9999 FEW020 BKN/// 19/15 Q1013 NOSIG RMK 1CU020 A2993
RJTT 212330Z 05006KT 9999 FEW020 BKN/// 19/15 Q1013 NOSIG
RJTT 212300Z 04006KT 9999 FEW020 BKN/// 18/14 Q1013 NOSIG RMK 1CU020 A2992
RJTT 212230Z 03006KT 9999 FEW015 BKN/// 17/15 Q1013 NOSIG
RJTT 212200Z 06004KT 9999 FEW015 BKN/// 17/14 Q1013 BECMG 08005KT RMK 1CU015 A2992
RJTT 212130Z 06005KT 9999 FEW015 BKN/// 16/14 Q1012 NOSIG
RJTT 212100Z 03004KT 9999 FEW015 BKN/// 16/14 Q1012 NOSIG RMK 1CU015 A2991
RJTT 212030Z 03005KT 9999 FEW015 BKN/// 16/14 Q1012 NOSIG
RJTT 212000Z 03006KT 9000 FEW015 BKN/// 16/14 Q1012 NOSIG RMK 1CU015 A2990
RJTT 211930Z 03006KT 9999 FEW015 BKN/// 16/14 Q1012 NOSIG
RJTT 211900Z 03005KT 9999 FEW015 BKN/// 16/14 Q1011 NOSIG RMK 1CU015 A2988
RJTT 211830Z 02006KT 9999 FEW015 SCT170 BKN/// 17/14 Q1011 NOSIG
RJTT 211800Z 04006KT 9999 FEW015 BKN/// 17/15 Q1011 NOSIG RMK 1CU015 A2988
RJTT 211730Z 04003KT 9999 FEW015 SCT120 BKN160 17/15 Q1011 NOSIG RMK 1CU015 3AC120 7AC160 A2987
RJTT 211700Z VRB02KT 9000 FEW015 SCT120 BKN150 17/15 Q1011 BECMG 36005KT RMK 1CU015 3AC120 7AC150 A2988
RJTT 211630Z 09003KT 9000 FEW015 BKN170 17/15 Q1011 BECMG 04005KT
RJTT 211600Z 09005KT 9999 FEW015 BKN150 17/15 Q1012 BECMG 04005KT RMK 1CU015 7AC150 A2989
RJTT 211530Z 08007KT 9999 FEW015 BKN150 BKN/// 17/15 Q1012 NOSIG RMK 1CU015 5AC150 A2989
RJTT 211500Z 08006KT 9999 FEW015 BKN025 BKN045 17/15 Q1012 NOSIG RMK 1CU015 5SC025 7SC045 A2989
RJTT 211430Z 09007KT 9999 FEW015 BKN025 17/15 Q1012 BECMG 04006KT
RJTT 211400Z 08008KT 9999 FEW020 BKN025 17/15 Q1012 BECMG 04006KT RMK 1CU020 7SC025 A2990
RJTT 211330Z 11005KT 060V170 9999 FEW020 BKN035 17/15 Q1012 NOSIG RMK 1CU020 7SC035 A2989
RJTT 211300Z 18006KT 140V220 9999 FEW020 BKN035 18/15 Q1012 BECMG 34006KT
RJTT 211230Z 16004KT 090V220 9999 FEW020 BKN040 17/15 Q1012 NOSIG RMK 1CU020 7SC040 A2989
RJTT 211200Z 17006KT 9999 FEW020 BKN040 18/15 Q1012 NOSIG RMK 1CU020 7SC040 A2989
RJTT 211130Z 16008KT 9999 FEW020 BKN040 BKN100 18/15 Q1012 NOSIG RMK 1CU020 5SC040 7AC100 A2989
RJTT 211100Z 18009KT 9999 FEW020 SCT040 BKN/// 19/15 Q1012 NOSIG RMK 1CU020 4SC040 A2989
RJTT 211030Z 18011KT 9999 FEW020 SCT040 BKN/// 19/15 Q1011 NOSIG
RJTT 211000Z 14007KT 9999 FEW020 SCT040 BKN/// 18/15 Q1011 NOSIG RMK 1CU020 3SC040 A2986
RJTT 210930Z 17008KT 9999 FEW020 BKN/// 18/15 Q1011 NOSIG
RJTT 210900Z 17009KT 9999 FEW020 SCT180 BKN/// 19/15 Q1011 NOSIG RMK 1CU020 3AC180 A2986
RJTT 210830Z 17011KT 9999 FEW020 SCT180 BKN/// 19/14 Q1011 NOSIG RMK 1CU020 4AC180 A2985
RJTT 210800Z 17012KT 9999 FEW020 BKN140 BKN/// 19/14 Q1011 NOSIG RMK 1CU020 5AC140 A2986
RJTT 210730Z 17011KT 9999 FEW020 BKN140 BKN/// 20/14 Q1011 NOSIG
RJTT 210700Z 18012KT 9999 FEW030 SCT140 20/14 Q1011 NOSIG RMK 1CU030 3AC140 A2985
RJTT 210630Z 18013KT 9999 FEW030 BKN100 BKN/// 20/14 Q1010 NOSIG
RJTT 210600Z 19013KT 9999 FEW030 BKN100 21/14 Q1010 NOSIG RMK 1CU030 6AC100 A2985
RJTT 210530Z 18014KT 9999 FEW030 BKN100 22/13 Q1010 NOSIG RMK 1CU030 6AC100 A2985
RJTT 210500Z 18013KT 9999 FEW030 BKN100 21/13 Q1011 NOSIG RMK 1CU030 5AC100 A2986
RJTT 210430Z 19011KT 9999 FEW030 SCT/// 21/13 Q1011 NOSIG
RJTT 210400Z 16011KT 9999 FEW020 BKN/// 20/12 Q1011 NOSIG
RJTT 210330Z 16009KT 120V200 9999 FEW030 BKN/// 21/12 Q1012 NOSIG
RJTT 210300Z VRB05KT 9999 FEW025 SCT035 BKN/// 19/13 Q1012 NOSIG RMK 1CU025 3CU035 A2990
RJTT 210230Z 08005KT 9999 FEW025 BKN/// 19/14 Q1012 NOSIG
RJTT 210200Z 07006KT 9999 FEW025 BKN/// 19/13 Q1013 NOSIG RMK 1CU025 A2992
RJTT 210130Z 08005KT 9999 FEW025 BKN/// 18/13 Q1013 NOSIG
RJTT 210100Z 06004KT 9999 FEW020 SCT025 BKN/// 18/13 Q1014 BECMG TL0130 12006KT RMK 1CU020 3CU025 A2994
RJTT 210030Z 04005KT 9999 FEW025 BKN/// 17/12 Q1014 BECMG 12006KT
RJTT 210000Z 04006KT 9999 FEW020 SCT025 BKN/// 17/12 Q1014 BECMG 12006KT RMK 1CU020 3SC025 A2995
RJTT 202330Z 03004KT 360V060 9999 FEW020 BKN/// 16/12 Q1014 BECMG 12006KT
RJTT 202300Z 36005KT 9999 FEW020 SCT030 BKN/// 16/11 Q1014 BECMG 09006KT RMK 1CU020 4SC030 A2995
RJTT 202230Z 01007KT 9999 FEW020 BKN/// 15/11 Q1014 NOSIG RMK 1CU020 A2995
RJTT 202200Z 36008KT 9999 FEW020 BKN/// 15/11 Q1014 NOSIG RMK 1CU020 A2996
RJTT 202130Z 02007KT 9999 FEW020 BKN/// 14/10 Q1014 NOSIG RMK 1CU020 A2995
RJTT 202100Z 04006KT 9999 FEW020 BKN/// 14/11 Q1014 NOSIG RMK 1CU020 A2994
RJTT 202030Z 02007KT 9999 FEW020 BKN/// 14/11 Q1014 NOSIG
RJTT 202000Z 01009KT 9999 FEW020 14/11 Q1014 NOSIG RMK 1CU020 A2995
RJTT 201930Z 01009KT 9999 FEW035 SCT050 15/11 Q1013 NOSIG RMK 1CU035 4SC050 A2994